createdAt,value
2023-09-03T00:02:27.245Z,20.36
2023-09-03T00:04:56.611Z,20.35
2023-09-03T00:07:24.637Z,20.35
2023-09-03T00:09:52.655Z,20.35
2023-09-03T00:12:20.638Z,20.33
2023-09-03T00:14:48.674Z,20.31
2023-09-03T00:17:16.630Z,20.29
2023-09-03T00:19:44.786Z,20.29
2023-09-03T00:22:14.159Z,20.38
2023-09-03T00:24:42.182Z,20.37
2023-09-03T00:27:10.149Z,20.39
2023-09-03T00:29:38.152Z,20.34
2023-09-03T00:32:06.276Z,20.33
2023-09-03T00:34:34.775Z,20.30
2023-09-03T00:37:02.773Z,20.26
2023-09-03T00:39:32.326Z,20.21
2023-09-03T00:42:01.461Z,20.16
2023-09-03T00:44:29.430Z,20.14
2023-09-03T00:46:57.435Z,20.12
2023-09-03T00:49:25.864Z,20.02
2023-09-03T00:51:54.346Z,19.97
2023-09-03T00:54:22.466Z,19.93
2023-09-03T00:56:51.957Z,19.90
2023-09-03T00:59:20.446Z,19.83
2023-09-03T01:01:50.365Z,19.68
2023-09-03T01:04:19.737Z,19.68
2023-09-03T01:06:47.881Z,19.66
2023-09-03T01:09:15.896Z,19.52
2023-09-03T01:11:45.981Z,19.49
2023-09-03T01:14:18.268Z,19.43
2023-09-03T01:16:50.075Z,19.38
2023-09-03T01:19:30.921Z,19.36
2023-09-03T01:22:03.257Z,19.33
2023-09-03T01:24:42.587Z,19.28
2023-09-03T01:27:17.426Z,19.26
2023-09-03T01:29:46.784Z,19.27
2023-09-03T01:32:14.950Z,19.25
2023-09-03T01:34:42.900Z,19.18
2023-09-03T01:37:10.981Z,19.07
2023-09-03T01:39:39.061Z,19.08
2023-09-03T01:42:07.123Z,19.04
2023-09-03T01:44:35.111Z,19.00
2023-09-03T01:47:07.957Z,18.95
2023-09-03T01:49:39.269Z,18.88
2023-09-03T01:52:13.237Z,18.87
2023-09-03T01:54:41.884Z,18.76
2023-09-03T01:57:13.287Z,18.82
2023-09-03T01:59:43.625Z,18.82
2023-09-03T02:02:13.286Z,18.87
2023-09-03T02:04:41.484Z,18.85
2023-09-03T02:07:09.486Z,18.86
2023-09-03T02:09:37.478Z,18.84
2023-09-03T02:12:07.390Z,18.82
2023-09-03T02:14:35.398Z,18.79
2023-09-03T02:17:03.735Z,18.77
2023-09-03T02:19:33.122Z,18.77
2023-09-03T02:22:01.153Z,18.83
2023-09-03T02:24:29.108Z,18.82
2023-09-03T02:26:57.164Z,18.78
2023-09-03T02:29:25.154Z,18.71
2023-09-03T02:31:53.167Z,18.65
2023-09-03T02:34:21.216Z,18.64
2023-09-03T02:36:50.576Z,18.59
2023-09-03T02:39:18.678Z,18.56
2023-09-03T02:41:46.674Z,18.61
2023-09-03T02:44:14.660Z,18.63
2023-09-03T02:46:42.666Z,18.62
2023-09-03T02:49:11.232Z,18.62
2023-09-03T02:51:39.729Z,18.61
2023-09-03T02:54:09.182Z,18.58
2023-09-03T02:56:37.182Z,18.68
2023-09-03T02:59:05.232Z,18.67
2023-09-03T03:01:35.429Z,18.71
2023-09-03T03:04:03.700Z,18.68
2023-09-03T03:06:31.679Z,18.64
2023-09-03T03:08:59.865Z,18.43
2023-09-03T03:11:29.200Z,18.35
2023-09-03T03:13:57.250Z,18.37
2023-09-03T03:16:25.764Z,18.34
2023-09-03T03:18:53.971Z,18.27
2023-09-03T03:21:23.679Z,18.23
2023-09-03T03:23:52.974Z,18.14
2023-09-03T03:26:21.044Z,18.09
2023-09-03T03:28:50.470Z,18.02
2023-09-03T03:31:19.039Z,18.03
2023-09-03T03:33:49.466Z,17.99
2023-09-03T03:36:17.818Z,18.00
2023-09-03T03:38:46.052Z,17.99
2023-09-03T03:41:14.928Z,18.00
2023-09-03T03:43:44.147Z,18.00
2023-09-03T03:46:15.747Z,18.00
2023-09-03T03:48:43.753Z,18.01
2023-09-03T03:51:11.810Z,18.02
2023-09-03T03:53:39.773Z,18.04
2023-09-03T03:56:08.442Z,18.09
2023-09-03T03:58:37.361Z,18.12
2023-09-03T04:01:14.048Z,18.14
2023-09-03T04:03:42.680Z,18.19
2023-09-03T04:06:10.729Z,18.23
2023-09-03T04:08:39.345Z,18.32
2023-09-03T04:11:08.429Z,18.39
2023-09-03T04:13:36.712Z,18.49
2023-09-03T04:16:07.892Z,18.57
2023-09-03T04:18:37.355Z,18.65
2023-09-03T04:21:05.414Z,18.76
2023-09-03T04:23:33.398Z,18.82
2023-09-03T04:26:01.401Z,18.94
2023-09-03T04:28:29.452Z,18.97
2023-09-03T04:30:57.974Z,18.99
2023-09-03T04:33:26.101Z,19.14
2023-09-03T04:35:58.317Z,19.45
2023-09-03T04:38:26.434Z,19.84
2023-09-03T04:40:54.427Z,20.25
2023-09-03T04:43:22.376Z,20.68
2023-09-03T04:45:50.650Z,21.58
2023-09-03T04:48:19.248Z,22.56
2023-09-03T04:50:47.684Z,23.77
2023-09-03T04:53:17.041Z,25.03
2023-09-03T04:55:45.023Z,26.27
2023-09-03T04:58:13.046Z,27.08
2023-09-03T05:00:41.156Z,27.76
2023-09-03T05:03:09.308Z,28.49
2023-09-03T05:05:41.657Z,29.64
2023-09-03T05:08:09.704Z,30.59
2023-09-03T05:10:39.947Z,31.46
2023-09-03T05:13:07.988Z,32.07
2023-09-03T05:15:37.898Z,32.53
2023-09-03T05:18:06.382Z,32.85
2023-09-03T05:20:34.468Z,33.28
2023-09-03T05:23:02.516Z,33.82
2023-09-03T05:25:30.489Z,34.58
2023-09-03T05:28:00.022Z,34.54
2023-09-03T05:30:28.222Z,34.48
2023-09-03T05:32:56.256Z,34.20
2023-09-03T05:35:24.494Z,34.33
2023-09-03T05:37:52.602Z,34.13
2023-09-03T05:40:20.610Z,34.40
2023-09-03T05:42:49.760Z,34.43
2023-09-03T05:45:19.169Z,33.96
2023-09-03T05:47:47.230Z,33.99
2023-09-03T05:50:15.234Z,34.90
2023-09-03T05:52:44.148Z,35.81
2023-09-03T05:55:12.298Z,35.50
2023-09-03T05:57:41.413Z,35.47
2023-09-03T06:00:09.866Z,34.32
2023-09-03T06:02:39.236Z,32.70
2023-09-03T06:05:08.411Z,31.60
2023-09-03T06:07:36.405Z,31.26
2023-09-03T06:10:04.450Z,32.19
2023-09-03T06:12:32.617Z,33.62
2023-09-03T06:15:00.655Z,34.04
2023-09-03T06:17:28.667Z,35.20
2023-09-03T06:19:58.055Z,36.42
2023-09-03T06:22:26.025Z,36.60
2023-09-03T06:24:54.045Z,37.09
2023-09-03T06:27:22.061Z,37.36
2023-09-03T06:29:50.189Z,37.67
2023-09-03T06:32:18.253Z,37.91
2023-09-03T06:34:46.209Z,38.21
2023-09-03T06:37:15.540Z,38.44
2023-09-03T06:39:44.018Z,38.54
2023-09-03T06:42:12.062Z,38.54
2023-09-03T06:44:40.064Z,38.81
2023-09-03T06:47:08.125Z,38.40
2023-09-03T06:49:36.136Z,38.58
2023-09-03T06:52:04.245Z,38.40
2023-09-03T06:54:33.611Z,38.14
2023-09-03T06:57:01.575Z,38.26
2023-09-03T06:59:34.619Z,38.25
2023-09-03T07:02:03.333Z,37.93
2023-09-03T07:04:31.368Z,37.57
2023-09-03T07:07:02.741Z,38.20
2023-09-03T07:09:34.296Z,38.71
2023-09-03T07:12:02.318Z,38.95
2023-09-03T07:14:33.346Z,39.00
2023-09-03T07:17:01.680Z,39.00
2023-09-03T07:19:29.703Z,37.79
2023-09-03T07:21:57.678Z,37.41
2023-09-03T07:24:25.727Z,36.13
2023-09-03T07:26:55.081Z,35.60
2023-09-03T07:29:23.100Z,36.10
2023-09-03T07:31:51.102Z,36.15
2023-09-03T07:34:19.169Z,35.59
2023-09-03T07:36:47.148Z,36.41
2023-09-03T07:39:15.156Z,37.12
2023-09-03T07:41:43.737Z,37.31
2023-09-03T07:44:13.186Z,37.50
2023-09-03T07:46:41.220Z,36.76
2023-09-03T07:49:09.272Z,37.43
2023-09-03T07:51:37.277Z,36.78
2023-09-03T07:54:05.774Z,35.68
2023-09-03T07:56:33.762Z,34.92
2023-09-03T07:59:01.985Z,33.97
2023-09-03T08:01:31.349Z,34.04
2023-09-03T08:03:59.461Z,33.87
2023-09-03T08:06:27.457Z,33.95
2023-09-03T08:08:56.222Z,33.57
2023-09-03T08:11:24.272Z,33.42
2023-09-03T08:13:53.084Z,33.27
2023-09-03T08:16:21.145Z,33.32
2023-09-03T08:18:53.206Z,32.90
2023-09-03T08:21:21.209Z,32.67
2023-09-03T08:23:49.219Z,32.58
2023-09-03T08:26:17.236Z,32.73
2023-09-03T08:28:45.270Z,32.99
2023-09-03T08:31:13.321Z,33.35
2023-09-03T08:33:41.956Z,33.36
2023-09-03T08:36:11.371Z,33.28
2023-09-03T08:38:39.327Z,33.46
2023-09-03T08:41:07.299Z,33.31
2023-09-03T08:43:35.281Z,33.32
2023-09-03T08:46:04.142Z,33.46
2023-09-03T08:48:32.167Z,33.67
2023-09-03T08:51:00.197Z,33.82
2023-09-03T08:53:29.593Z,34.12
2023-09-03T08:55:57.590Z,33.86
2023-09-03T08:58:25.686Z,34.02
2023-09-03T09:00:55.152Z,33.89
2023-09-03T09:03:23.812Z,33.86
2023-09-03T09:05:52.082Z,33.94
2023-09-03T09:08:20.071Z,33.99
2023-09-03T09:10:49.652Z,34.17
2023-09-03T09:13:21.466Z,34.14
2023-09-03T09:15:49.723Z,34.25
2023-09-03T09:18:17.807Z,34.31
2023-09-03T09:20:45.827Z,34.88
2023-09-03T09:23:13.881Z,35.57
2023-09-03T09:25:41.912Z,35.63
2023-09-03T09:28:15.517Z,36.03
2023-09-03T09:30:56.467Z,36.59
2023-09-03T09:33:25.140Z,36.41
2023-09-03T09:35:53.929Z,36.67
2023-09-03T09:38:21.890Z,36.83
2023-09-03T09:40:49.882Z,37.21
2023-09-03T09:43:19.452Z,36.98
2023-09-03T09:45:48.519Z,36.42
2023-09-03T09:48:16.625Z,36.40
2023-09-03T09:50:45.596Z,36.83
2023-09-03T09:53:31.223Z,36.85
2023-09-03T09:56:01.044Z,37.05
2023-09-03T09:58:40.084Z,36.89
2023-09-03T10:01:08.363Z,36.84
2023-09-03T10:03:43.712Z,36.43
2023-09-03T10:06:11.806Z,36.24
2023-09-03T10:08:39.830Z,36.22
2023-09-03T10:11:07.788Z,35.97
2023-09-03T10:13:35.789Z,35.93
2023-09-03T10:16:05.272Z,36.16
2023-09-03T10:18:33.616Z,36.55
2023-09-03T10:21:02.849Z,36.67
2023-09-03T10:23:31.395Z,36.79
2023-09-03T10:26:05.672Z,36.60
2023-09-03T10:28:34.649Z,36.43
2023-09-03T10:31:03.996Z,36.51
2023-09-03T10:33:32.006Z,36.45
2023-09-03T10:36:18.981Z,36.84
2023-09-03T10:38:47.011Z,37.03
2023-09-03T10:41:23.718Z,37.52
2023-09-03T10:43:53.041Z,38.38
2023-09-03T10:46:23.378Z,38.78
2023-09-03T10:48:55.001Z,40.06
2023-09-03T10:51:33.651Z,39.87
2023-09-03T10:54:20.488Z,40.79
2023-09-03T10:57:19.679Z,41.63
2023-09-03T11:00:17.240Z,42.46
2023-09-03T11:02:50.598Z,41.85
2023-09-03T11:05:21.933Z,42.29
2023-09-03T11:07:50.773Z,43.77
2023-09-03T11:10:43.316Z,43.25
2023-09-03T11:13:26.626Z,42.74
2023-09-03T11:16:03.089Z,42.95
2023-09-03T11:18:33.871Z,41.79
2023-09-03T11:21:02.354Z,41.25
2023-09-03T11:23:35.145Z,40.15
2023-09-03T11:26:07.098Z,39.08
2023-09-03T11:28:37.301Z,38.37
2023-09-03T11:31:05.545Z,37.78
2023-09-03T11:33:34.988Z,37.90
2023-09-03T11:36:03.038Z,38.31
2023-09-03T11:38:33.700Z,38.73
2023-09-03T11:41:01.723Z,39.36
2023-09-03T11:43:31.121Z,39.46
2023-09-03T11:45:59.107Z,39.21
2023-09-03T11:48:27.313Z,39.31
2023-09-03T11:50:56.715Z,39.14
2023-09-03T11:53:25.053Z,38.94
2023-09-03T11:55:54.830Z,38.60
2023-09-03T11:58:23.421Z,38.14
2023-09-03T12:00:51.472Z,37.81
2023-09-03T12:03:19.583Z,37.80
2023-09-03T12:05:47.731Z,37.59
2023-09-03T12:08:17.141Z,37.44
2023-09-03T12:10:48.964Z,37.43
2023-09-03T12:13:29.138Z,37.21
2023-09-03T12:16:04.409Z,37.26
2023-09-03T12:18:32.399Z,37.67
2023-09-03T12:21:00.554Z,37.96
2023-09-03T12:23:30.277Z,38.26
2023-09-03T12:25:58.472Z,38.66
2023-09-03T12:28:36.934Z,38.37
2023-09-03T12:31:05.899Z,38.30
2023-09-03T12:33:47.876Z,38.28
2023-09-03T12:36:16.521Z,38.24
2023-09-03T12:38:55.660Z,38.30
2023-09-03T12:41:24.442Z,38.56
2023-09-03T12:43:52.564Z,38.26
2023-09-03T12:46:20.753Z,37.88
2023-09-03T12:48:48.788Z,37.95
2023-09-03T12:51:17.761Z,37.55
2023-09-03T12:53:46.909Z,37.16
2023-09-03T12:56:16.327Z,36.70
2023-09-03T12:58:44.403Z,36.56
2023-09-03T13:01:12.568Z,36.15
2023-09-03T13:03:40.688Z,35.88
2023-09-03T13:06:08.729Z,35.61
2023-09-03T13:08:38.304Z,35.19
2023-09-03T13:11:06.338Z,34.81
2023-09-03T13:13:35.667Z,34.69
2023-09-03T13:16:04.767Z,34.54
2023-09-03T13:18:33.226Z,34.23
2023-09-03T13:21:01.971Z,34.15
2023-09-03T13:23:30.000Z,34.07
2023-09-03T13:25:58.045Z,33.72
2023-09-03T13:28:26.056Z,33.58
2023-09-03T13:31:05.541Z,33.63
2023-09-03T13:33:35.681Z,33.72
2023-09-03T13:36:05.059Z,33.80
2023-09-03T13:38:33.822Z,33.88
2023-09-03T13:41:01.830Z,33.87
2023-09-03T13:43:29.883Z,33.78
2023-09-03T13:45:59.745Z,33.88
2023-09-03T13:48:27.900Z,33.78
2023-09-03T13:50:56.887Z,33.87
2023-09-03T13:53:25.517Z,33.81
2023-09-03T13:55:53.807Z,33.87
2023-09-03T13:58:22.050Z,33.84
2023-09-03T14:00:50.236Z,33.80
2023-09-03T14:03:19.745Z,33.77
2023-09-03T14:05:47.989Z,33.65
2023-09-03T14:08:17.495Z,33.72
2023-09-03T14:10:45.529Z,33.66
2023-09-03T14:13:13.542Z,33.71
2023-09-03T14:15:41.598Z,33.80
2023-09-03T14:18:09.668Z,33.79
2023-09-03T14:20:39.278Z,33.51
2023-09-03T14:23:07.228Z,33.51
2023-09-03T14:25:36.560Z,33.43
2023-09-03T14:28:04.619Z,33.32
2023-09-03T14:30:32.635Z,32.90
2023-09-03T14:33:03.461Z,32.69
2023-09-03T14:35:31.599Z,32.55
2023-09-03T14:38:00.982Z,32.43
2023-09-03T14:40:28.998Z,32.28
2023-09-03T14:42:57.058Z,32.02
2023-09-03T14:45:25.187Z,31.99
2023-09-03T14:47:53.211Z,31.80
2023-09-03T14:50:23.474Z,31.72
2023-09-03T14:52:51.610Z,31.50
2023-09-03T14:55:24.039Z,31.37
2023-09-03T14:57:54.017Z,31.15
2023-09-03T15:00:22.024Z,31.10
2023-09-03T15:02:50.058Z,30.97
2023-09-03T15:05:18.165Z,30.83
2023-09-03T15:07:46.166Z,30.81
2023-09-03T15:10:14.316Z,30.76
2023-09-03T15:12:43.656Z,30.61
2023-09-03T15:15:12.831Z,30.54
2023-09-03T15:17:40.836Z,30.48
2023-09-03T15:20:10.499Z,30.33
2023-09-03T15:22:38.485Z,30.29
2023-09-03T15:25:07.469Z,30.25
2023-09-03T15:27:35.500Z,30.16
2023-09-03T15:30:05.601Z,30.11
2023-09-03T15:32:33.619Z,30.08
2023-09-03T15:35:01.745Z,30.03
2023-09-03T15:37:29.706Z,29.91
2023-09-03T15:39:57.678Z,29.87
2023-09-03T15:42:25.674Z,29.74
2023-09-03T15:44:53.868Z,29.65
2023-09-03T15:47:23.190Z,29.49
2023-09-03T15:49:51.223Z,29.36
2023-09-03T15:52:19.198Z,29.35
2023-09-03T15:54:47.163Z,29.29
2023-09-03T15:57:15.187Z,29.20
2023-09-03T15:59:43.232Z,29.09
2023-09-03T16:02:12.176Z,28.95
2023-09-03T16:04:42.666Z,28.81
2023-09-03T16:07:10.698Z,28.79
2023-09-03T16:09:38.771Z,28.71
2023-09-03T16:12:07.376Z,28.57
2023-09-03T16:14:35.397Z,28.44
2023-09-03T16:17:03.375Z,28.29
2023-09-03T16:19:31.382Z,28.06
2023-09-03T16:22:00.865Z,27.91
2023-09-03T16:24:28.857Z,27.73
2023-09-03T16:26:56.871Z,27.61
2023-09-03T16:29:25.330Z,27.49
2023-09-03T16:31:53.525Z,27.31
2023-09-03T16:34:21.556Z,27.16
2023-09-03T16:36:49.607Z,27.06
2023-09-03T16:39:19.013Z,26.79
2023-09-03T16:41:47.670Z,26.65
2023-09-03T16:44:15.676Z,26.55
2023-09-03T16:46:43.683Z,26.38
2023-09-03T16:49:11.705Z,26.13
2023-09-03T16:51:40.024Z,26.00
2023-09-03T16:54:08.373Z,25.91
2023-09-03T16:56:37.809Z,25.88
2023-09-03T16:59:06.727Z,25.75
2023-09-03T17:01:34.730Z,25.64
2023-09-03T17:04:02.723Z,25.53
2023-09-03T17:06:31.076Z,25.41
2023-09-03T17:08:59.832Z,25.30
2023-09-03T17:11:28.333Z,25.18
2023-09-03T17:13:59.035Z,25.08
2023-09-03T17:16:27.124Z,25.04
2023-09-03T17:18:57.765Z,24.94
2023-09-03T17:21:26.105Z,24.85
2023-09-03T17:23:54.096Z,24.79
2023-09-03T17:26:26.546Z,24.74
2023-09-03T17:28:59.085Z,24.66
2023-09-03T17:31:30.908Z,24.61
2023-09-03T17:33:59.273Z,24.51
2023-09-03T17:36:27.386Z,24.44
2023-09-03T17:38:55.635Z,24.37
2023-09-03T17:41:24.605Z,24.29
2023-09-03T17:43:55.092Z,24.30
2023-09-03T17:46:23.196Z,24.26
2023-09-03T17:48:52.672Z,24.16
2023-09-03T17:51:20.668Z,24.08
2023-09-03T17:53:48.638Z,24.09
2023-09-03T17:56:16.655Z,24.11
2023-09-03T17:58:44.662Z,24.09
2023-09-03T18:01:12.698Z,24.08
2023-09-03T18:03:40.873Z,24.05
2023-09-03T18:06:11.550Z,24.03
2023-09-03T18:08:40.028Z,24.08
2023-09-03T18:11:13.112Z,24.12
2023-09-03T18:13:42.166Z,24.07
2023-09-03T18:16:10.379Z,24.05
2023-09-03T18:18:38.461Z,24.07
2023-09-03T18:21:06.441Z,24.06
2023-09-03T18:23:35.772Z,23.98
2023-09-03T18:26:04.578Z,23.96
2023-09-03T18:28:33.343Z,23.92
2023-09-03T18:31:01.412Z,23.87
2023-09-03T18:33:29.460Z,23.80
2023-09-03T18:35:57.559Z,23.79
2023-09-03T18:38:25.883Z,23.78
2023-09-03T18:40:55.304Z,23.73
2023-09-03T18:43:23.317Z,23.78
2023-09-03T18:45:52.837Z,23.82
2023-09-03T18:48:21.208Z,23.81
2023-09-03T18:50:49.360Z,23.81
2023-09-03T18:53:17.370Z,23.81
2023-09-03T18:55:45.332Z,23.80
2023-09-03T18:58:14.658Z,23.74
2023-09-03T19:00:42.790Z,23.71
2023-09-03T19:03:10.881Z,23.61
2023-09-03T19:05:39.070Z,23.56
2023-09-03T19:08:07.488Z,23.53
2023-09-03T19:10:35.524Z,23.50
2023-09-03T19:13:07.246Z,23.45
2023-09-03T19:15:40.258Z,23.25
2023-09-03T19:18:08.595Z,23.21
2023-09-03T19:20:37.564Z,23.13
2023-09-03T19:23:06.298Z,22.99
2023-09-03T19:25:43.605Z,23.11
2023-09-03T19:28:14.642Z,23.17
2023-09-03T19:30:44.287Z,23.18
2023-09-03T19:33:12.550Z,23.17
2023-09-03T19:35:40.621Z,23.10
2023-09-03T19:38:08.591Z,23.02
2023-09-03T19:40:36.556Z,22.99
2023-09-03T19:43:04.610Z,23.02
2023-09-03T19:45:32.566Z,22.98
2023-09-03T19:48:20.096Z,22.92
2023-09-03T19:50:48.348Z,23.00
2023-09-03T19:53:16.365Z,23.02
2023-09-03T19:55:44.644Z,23.09
2023-09-03T19:58:13.636Z,23.19
2023-09-03T20:00:41.738Z,23.19
2023-09-03T20:03:09.946Z,23.27
2023-09-03T20:05:39.545Z,23.29
2023-09-03T20:08:07.992Z,23.17
2023-09-03T20:10:36.735Z,23.19
2023-09-03T20:13:05.235Z,23.18
2023-09-03T20:15:33.725Z,23.17
2023-09-03T20:18:01.850Z,23.20
2023-09-03T20:20:29.878Z,23.19
2023-09-03T20:23:00.483Z,23.17
2023-09-03T20:25:28.504Z,23.16
2023-09-03T20:27:56.457Z,23.20
2023-09-03T20:30:24.597Z,23.19
2023-09-03T20:32:52.607Z,23.18
2023-09-03T20:35:21.008Z,23.27
2023-09-03T20:37:49.226Z,23.23
2023-09-03T20:40:19.743Z,23.24
2023-09-03T20:42:47.696Z,23.24
2023-09-03T20:45:23.135Z,23.20
2023-09-03T20:47:51.495Z,23.14
2023-09-03T20:50:19.524Z,23.13
2023-09-03T20:52:47.516Z,23.11
2023-09-03T20:55:15.517Z,23.02
2023-09-03T20:57:44.887Z,23.06
2023-09-03T21:00:14.177Z,23.02
2023-09-03T21:02:43.120Z,22.96
2023-09-03T21:05:11.459Z,22.98
2023-09-03T21:07:39.471Z,23.02
2023-09-03T21:10:08.929Z,22.99
2023-09-03T21:12:39.672Z,22.96
2023-09-03T21:15:10.662Z,22.91
2023-09-03T21:17:38.678Z,22.79
2023-09-03T21:20:07.769Z,22.71
2023-09-03T21:22:36.160Z,22.68
2023-09-03T21:25:04.187Z,22.57
2023-09-03T21:27:32.180Z,22.48
2023-09-03T21:30:00.203Z,22.50
2023-09-03T21:32:29.933Z,22.46
2023-09-03T21:35:06.628Z,22.37
2023-09-03T21:37:38.723Z,22.34
2023-09-03T21:40:07.860Z,22.28
2023-09-03T21:42:35.863Z,22.22
2023-09-03T21:45:03.823Z,22.20
2023-09-03T21:47:33.214Z,22.15
2023-09-03T21:50:01.268Z,22.11
2023-09-03T21:52:30.237Z,22.12
2023-09-03T21:54:58.260Z,21.98
2023-09-03T21:57:26.292Z,21.94
2023-09-03T21:59:54.237Z,21.92
2023-09-03T22:02:22.923Z,21.91
2023-09-03T22:04:52.316Z,21.85
2023-09-03T22:07:27.121Z,21.82
2023-09-03T22:09:55.260Z,21.82
2023-09-03T22:12:23.244Z,21.79
2023-09-03T22:14:51.176Z,21.63
2023-09-03T22:17:19.130Z,21.47
2023-09-03T22:19:47.081Z,21.47
2023-09-03T22:22:16.451Z,21.43
2023-09-03T22:24:44.404Z,21.46
2023-09-03T22:27:12.408Z,21.46
2023-09-03T22:29:40.408Z,21.49
2023-09-03T22:32:08.393Z,21.47
2023-09-03T22:34:36.390Z,21.42
2023-09-03T22:37:04.505Z,21.44
2023-09-03T22:39:35.187Z,21.40
2023-09-03T22:42:03.174Z,21.37
2023-09-03T22:44:31.199Z,21.39
2023-09-03T22:46:59.418Z,21.33
2023-09-03T22:49:27.382Z,21.26
2023-09-03T22:51:55.341Z,21.23
2023-09-03T22:54:23.326Z,21.22
2023-09-03T22:56:52.682Z,21.16
2023-09-03T22:59:20.695Z,21.04
2023-09-03T23:01:48.748Z,21.01
2023-09-03T23:04:16.773Z,21.07
2023-09-03T23:06:44.759Z,21.04
2023-09-03T23:09:12.740Z,21.12
2023-09-03T23:11:40.690Z,21.33
2023-09-03T23:14:10.027Z,21.63
2023-09-03T23:16:38.058Z,21.70
2023-09-03T23:19:06.148Z,21.75
2023-09-03T23:21:34.176Z,21.84
2023-09-03T23:24:02.157Z,21.90
2023-09-03T23:26:30.170Z,22.00
2023-09-03T23:28:59.375Z,22.13
2023-09-03T23:31:31.371Z,22.21
2023-09-03T23:33:59.389Z,22.25
2023-09-03T23:36:27.365Z,22.18
2023-09-03T23:38:55.343Z,22.21
2023-09-03T23:41:23.307Z,22.29
2023-09-03T23:43:51.273Z,22.33
2023-09-03T23:46:19.369Z,22.35
2023-09-03T23:48:48.700Z,22.30
2023-09-03T23:51:16.730Z,22.27
2023-09-03T23:53:45.489Z,22.30
2023-09-03T23:56:13.498Z,22.34
2023-09-03T23:58:41.498Z,22.31
